sensor_id;sensor_type;location;lat;lon;timestamp;pressure;altitude;pressure_sealevel;temperature;humidity
86272;BME280;76930;50.692;16.628;2024-03-02T00:01:45;97279.13;;;10.21;72.17
86272;BME280;76930;50.692;16.628;2024-03-02T00:05:35;97282.42;;;10.20;72.39
86272;BME280;76930;50.692;16.628;2024-03-02T00:08:04;97287.05;;;10.16;72.44
86272;BME280;76930;50.692;16.628;2024-03-02T00:10:39;97285.45;;;10.14;72.36
86272;BME280;76930;50.692;16.628;2024-03-02T00:13:09;97284.27;;;10.14;72.73
86272;BME280;76930;50.692;16.628;2024-03-02T00:15:46;97283.54;;;10.11;72.73
86272;BME280;76930;50.692;16.628;2024-03-02T00:18:19;97287.77;;;10.11;72.88
86272;BME280;76930;50.692;16.628;2024-03-02T00:20:46;97290.38;;;10.11;72.75
86272;BME280;76930;50.692;16.628;2024-03-02T00:23:15;97291.30;;;10.13;72.93
86272;BME280;76930;50.692;16.628;2024-03-02T00:25:44;97289.36;;;10.13;73.10
86272;BME280;76930;50.692;16.628;2024-03-02T00:28:16;97293.81;;;10.11;73.07
86272;BME280;76930;50.692;16.628;2024-03-02T00:33:11;97289.74;;;10.07;73.25
86272;BME280;76930;50.692;16.628;2024-03-02T00:35:39;97292.30;;;10.10;73.22
86272;BME280;76930;50.692;16.628;2024-03-02T00:38:07;97293.19;;;10.12;73.33
86272;BME280;76930;50.692;16.628;2024-03-02T00:40:34;97290.79;;;10.13;73.34
86272;BME280;76930;50.692;16.628;2024-03-02T00:43:02;97285.19;;;10.12;73.28
86272;BME280;76930;50.692;16.628;2024-03-02T00:45:30;97282.61;;;10.11;73.44
86272;BME280;76930;50.692;16.628;2024-03-02T00:47:58;97278.35;;;10.09;73.35
86272;BME280;76930;50.692;16.628;2024-03-02T00:50:26;97281.15;;;10.11;73.37
86272;BME280;76930;50.692;16.628;2024-03-02T00:55:12;97272.23;;;10.18;73.30
86272;BME280;76930;50.692;16.628;2024-03-02T00:57:39;97269.98;;;10.16;73.13
86272;BME280;76930;50.692;16.628;2024-03-02T01:01:06;97262.00;;;10.14;73.15
86272;BME280;76930;50.692;16.628;2024-03-02T01:03:34;97259.64;;;10.09;73.15
86272;BME280;76930;50.692;16.628;2024-03-02T01:06:20;97262.41;;;10.14;72.97
86272;BME280;76930;50.692;16.628;2024-03-02T01:10:16;97259.98;;;10.15;72.82
86272;BME280;76930;50.692;16.628;2024-03-02T01:12:44;97260.34;;;10.11;72.58
86272;BME280;76930;50.692;16.628;2024-03-02T01:15:11;97262.02;;;10.11;72.48
86272;BME280;76930;50.692;16.628;2024-03-02T01:17:39;97258.65;;;10.10;72.09
86272;BME280;76930;50.692;16.628;2024-03-02T01:20:09;97256.95;;;10.10;72.02
86272;BME280;76930;50.692;16.628;2024-03-02T01:22:36;97251.53;;;10.13;71.82
86272;BME280;76930;50.692;16.628;2024-03-02T01:25:04;97248.48;;;10.14;71.68
86272;BME280;76930;50.692;16.628;2024-03-02T01:27:34;97246.31;;;10.15;71.30
86272;BME280;76930;50.692;16.628;2024-03-02T01:30:01;97247.70;;;10.13;70.89
86272;BME280;76930;50.692;16.628;2024-03-02T01:32:28;97243.45;;;10.10;70.89
86272;BME280;76930;50.692;16.628;2024-03-02T01:34:56;97243.98;;;10.06;70.82
86272;BME280;76930;50.692;16.628;2024-03-02T01:37:23;97240.97;;;10.03;70.84
86272;BME280;76930;50.692;16.628;2024-03-02T01:39:50;97244.17;;;9.99;70.76
86272;BME280;76930;50.692;16.628;2024-03-02T01:42:18;97246.96;;;9.99;70.59
86272;BME280;76930;50.692;16.628;2024-03-02T01:44:45;97243.93;;;9.99;70.57
86272;BME280;76930;50.692;16.628;2024-03-02T01:47:12;97244.53;;;9.99;70.28
86272;BME280;76930;50.692;16.628;2024-03-02T01:49:41;97246.05;;;9.98;70.02
86272;BME280;76930;50.692;16.628;2024-03-02T01:52:08;97238.29;;;9.97;69.85
86272;BME280;76930;50.692;16.628;2024-03-02T01:54:36;97242.11;;;9.96;70.02
86272;BME280;76930;50.692;16.628;2024-03-02T01:57:03;97239.91;;;9.95;69.69
86272;BME280;76930;50.692;16.628;2024-03-02T01:59:32;97244.39;;;9.97;69.66
86272;BME280;76930;50.692;16.628;2024-03-02T02:01:59;97245.87;;;9.99;69.63
86272;BME280;76930;50.692;16.628;2024-03-02T02:04:26;97247.52;;;10.01;69.66
86272;BME280;76930;50.692;16.628;2024-03-02T02:06:56;97246.31;;;10.03;69.47
86272;BME280;76930;50.692;16.628;2024-03-02T02:09:23;97242.56;;;10.03;69.14
86272;BME280;76930;50.692;16.628;2024-03-02T02:11:51;97237.50;;;10.04;68.62
86272;BME280;76930;50.692;16.628;2024-03-02T02:14:18;97234.78;;;10.06;68.35
86272;BME280;76930;50.692;16.628;2024-03-02T02:16:45;97229.25;;;10.07;68.12
86272;BME280;76930;50.692;16.628;2024-03-02T02:19:13;97230.17;;;10.09;68.02
86272;BME280;76930;50.692;16.628;2024-03-02T02:21:43;97223.39;;;10.11;68.21
86272;BME280;76930;50.692;16.628;2024-03-02T02:24:10;97218.29;;;10.16;68.12
86272;BME280;76930;50.692;16.628;2024-03-02T02:26:42;97213.42;;;10.20;68.14
86272;BME280;76930;50.692;16.628;2024-03-02T02:29:11;97217.04;;;10.25;68.20
86272;BME280;76930;50.692;16.628;2024-03-02T02:31:39;97217.77;;;10.27;68.31
86272;BME280;76930;50.692;16.628;2024-03-02T02:34:07;97218.52;;;10.28;68.55
86272;BME280;76930;50.692;16.628;2024-03-02T02:36:39;97212.91;;;10.29;68.32
86272;BME280;76930;50.692;16.628;2024-03-02T02:39:10;97211.53;;;10.28;68.31
86272;BME280;76930;50.692;16.628;2024-03-02T02:41:39;97207.95;;;10.28;68.16
86272;BME280;76930;50.692;16.628;2024-03-02T02:44:06;97210.35;;;10.31;68.03
86272;BME280;76930;50.692;16.628;2024-03-02T02:46:34;97208.83;;;10.34;67.97
86272;BME280;76930;50.692;16.628;2024-03-02T02:49:02;97205.77;;;10.36;67.72
86272;BME280;76930;50.692;16.628;2024-03-02T02:51:29;97199.27;;;10.37;67.53
86272;BME280;76930;50.692;16.628;2024-03-02T02:53:56;97195.42;;;10.36;67.30
86272;BME280;76930;50.692;16.628;2024-03-02T02:56:23;97193.53;;;10.34;67.25
86272;BME280;76930;50.692;16.628;2024-03-02T02:58:50;97201.58;;;10.32;66.88
86272;BME280;76930;50.692;16.628;2024-03-02T03:01:17;97199.50;;;10.30;66.04
86272;BME280;76930;50.692;16.628;2024-03-02T03:03:45;97200.83;;;10.32;66.14
86272;BME280;76930;50.692;16.628;2024-03-02T03:06:12;97207.39;;;10.34;66.06
86272;BME280;76930;50.692;16.628;2024-03-02T03:08:40;97208.80;;;10.34;66.19
86272;BME280;76930;50.692;16.628;2024-03-02T03:11:07;97205.73;;;10.33;65.90
86272;BME280;76930;50.692;16.628;2024-03-02T03:13:34;97203.45;;;10.33;65.57
86272;BME280;76930;50.692;16.628;2024-03-02T03:16:01;97208.98;;;10.31;65.46
86272;BME280;76930;50.692;16.628;2024-03-02T03:18:30;97214.91;;;10.30;65.37
86272;BME280;76930;50.692;16.628;2024-03-02T03:20:58;97221.13;;;10.28;65.44
86272;BME280;76930;50.692;16.628;2024-03-02T03:23:25;97217.29;;;10.26;65.56
86272;BME280;76930;50.692;16.628;2024-03-02T03:25:53;97220.20;;;10.23;65.66
86272;BME280;76930;50.692;16.628;2024-03-02T03:28:20;97215.20;;;10.24;65.67
86272;BME280;76930;50.692;16.628;2024-03-02T03:30:48;97213.92;;;10.24;65.57
86272;BME280;76930;50.692;16.628;2024-03-02T03:33:16;97216.63;;;10.22;66.09
86272;BME280;76930;50.692;16.628;2024-03-02T03:35:45;97221.01;;;10.19;65.84
86272;BME280;76930;50.692;16.628;2024-03-02T03:38:13;97221.79;;;10.16;66.18
86272;BME280;76930;50.692;16.628;2024-03-02T03:40:40;97217.64;;;10.13;66.32
86272;BME280;76930;50.692;16.628;2024-03-02T03:43:07;97217.81;;;10.10;66.47
86272;BME280;76930;50.692;16.628;2024-03-02T03:45:34;97223.26;;;10.06;66.46
86272;BME280;76930;50.692;16.628;2024-03-02T03:48:02;97224.64;;;10.04;66.34
86272;BME280;76930;50.692;16.628;2024-03-02T03:50:29;97229.80;;;10.04;66.26
86272;BME280;76930;50.692;16.628;2024-03-02T03:52:56;97223.88;;;10.03;66.43
86272;BME280;76930;50.692;16.628;2024-03-02T03:55:24;97224.26;;;10.01;66.48
86272;BME280;76930;50.692;16.628;2024-03-02T03:57:50;97220.33;;;9.97;66.57
86272;BME280;76930;50.692;16.628;2024-03-02T04:00:18;97219.77;;;9.94;66.69
86272;BME280;76930;50.692;16.628;2024-03-02T04:02:45;97224.31;;;9.90;66.89
86272;BME280;76930;50.692;16.628;2024-03-02T04:05:12;97226.66;;;9.86;67.13
86272;BME280;76930;50.692;16.628;2024-03-02T04:07:40;97225.53;;;9.81;67.06
86272;BME280;76930;50.692;16.628;2024-03-02T04:10:08;97231.63;;;9.81;67.43
86272;BME280;76930;50.692;16.628;2024-03-02T04:12:37;97230.56;;;9.80;67.38
86272;BME280;76930;50.692;16.628;2024-03-02T04:15:07;97230.18;;;9.79;67.45
86272;BME280;76930;50.692;16.628;2024-03-02T04:17:34;97230.70;;;9.77;67.60
86272;BME280;76930;50.692;16.628;2024-03-02T04:20:03;97232.39;;;9.75;67.69
86272;BME280;76930;50.692;16.628;2024-03-02T04:22:33;97241.37;;;9.72;67.74
86272;BME280;76930;50.692;16.628;2024-03-02T04:25:01;97241.78;;;9.68;67.76
86272;BME280;76930;50.692;16.628;2024-03-02T04:27:31;97246.61;;;9.64;67.90
86272;BME280;76930;50.692;16.628;2024-03-02T04:30:00;97251.96;;;9.60;67.80
86272;BME280;76930;50.692;16.628;2024-03-02T04:32:27;97254.86;;;9.59;67.98
86272;BME280;76930;50.692;16.628;2024-03-02T04:34:56;97257.30;;;9.60;68.01
86272;BME280;76930;50.692;16.628;2024-03-02T04:37:23;97261.66;;;9.59;68.25
86272;BME280;76930;50.692;16.628;2024-03-02T04:39:50;97264.77;;;9.58;68.61
86272;BME280;76930;50.692;16.628;2024-03-02T04:42:18;97267.80;;;9.56;68.63
86272;BME280;76930;50.692;16.628;2024-03-02T04:44:45;97270.08;;;9.53;68.65
86272;BME280;76930;50.692;16.628;2024-03-02T04:47:13;97269.96;;;9.50;68.76
86272;BME280;76930;50.692;16.628;2024-03-02T04:49:40;97273.95;;;9.48;69.07
86272;BME280;76930;50.692;16.628;2024-03-02T04:52:09;97275.52;;;9.48;69.01
86272;BME280;76930;50.692;16.628;2024-03-02T04:54:37;97276.48;;;9.49;69.08
86272;BME280;76930;50.692;16.628;2024-03-02T04:57:24;97276.81;;;9.48;69.40
86272;BME280;76930;50.692;16.628;2024-03-02T04:59:52;97280.64;;;9.47;69.43
86272;BME280;76930;50.692;16.628;2024-03-02T05:02:19;97280.67;;;9.43;69.75
86272;BME280;76930;50.692;16.628;2024-03-02T05:04:47;97281.12;;;9.38;70.03
86272;BME280;76930;50.692;16.628;2024-03-02T05:07:15;97282.02;;;9.34;70.09
86272;BME280;76930;50.692;16.628;2024-03-02T05:09:44;97287.24;;;9.35;70.22
86272;BME280;76930;50.692;16.628;2024-03-02T05:12:11;97291.33;;;9.37;70.11
86272;BME280;76930;50.692;16.628;2024-03-02T05:14:59;97293.25;;;9.39;70.02
86272;BME280;76930;50.692;16.628;2024-03-02T05:17:26;97295.14;;;9.42;70.06
86272;BME280;76930;50.692;16.628;2024-03-02T05:19:55;97297.52;;;9.43;70.02
86272;BME280;76930;50.692;16.628;2024-03-02T05:22:24;97298.73;;;9.44;70.01
86272;BME280;76930;50.692;16.628;2024-03-02T05:24:51;97298.95;;;9.43;69.80
86272;BME280;76930;50.692;16.628;2024-03-02T05:27:18;97298.30;;;9.41;69.89
86272;BME280;76930;50.692;16.628;2024-03-02T05:29:45;97299.60;;;9.42;69.82
86272;BME280;76930;50.692;16.628;2024-03-02T05:32:12;97299.94;;;9.44;69.69
86272;BME280;76930;50.692;16.628;2024-03-02T05:34:39;97303.70;;;9.45;69.72
86272;BME280;76930;50.692;16.628;2024-03-02T05:37:06;97304.20;;;9.46;69.67
86272;BME280;76930;50.692;16.628;2024-03-02T05:39:34;97309.37;;;9.46;69.46
86272;BME280;76930;50.692;16.628;2024-03-02T05:42:01;97310.15;;;9.45;69.67
86272;BME280;76930;50.692;16.628;2024-03-02T05:44:30;97313.75;;;9.42;69.75
86272;BME280;76930;50.692;16.628;2024-03-02T05:46:57;97310.80;;;9.40;69.68
86272;BME280;76930;50.692;16.628;2024-03-02T05:49:24;97313.48;;;9.36;69.73
86272;BME280;76930;50.692;16.628;2024-03-02T05:51:51;97315.98;;;9.36;69.79
86272;BME280;76930;50.692;16.628;2024-03-02T05:54:18;97321.41;;;9.36;69.59
86272;BME280;76930;50.692;16.628;2024-03-02T05:56:45;97325.67;;;9.36;69.71
86272;BME280;76930;50.692;16.628;2024-03-02T05:59:13;97327.23;;;9.35;69.75
86272;BME280;76930;50.692;16.628;2024-03-02T06:01:43;97326.64;;;9.33;69.90
86272;BME280;76930;50.692;16.628;2024-03-02T06:04:11;97331.48;;;9.33;69.63
86272;BME280;76930;50.692;16.628;2024-03-02T06:06:38;97333.66;;;9.33;69.62
86272;BME280;76930;50.692;16.628;2024-03-02T06:09:06;97335.04;;;9.33;69.56
86272;BME280;76930;50.692;16.628;2024-03-02T06:11:35;97335.73;;;9.37;69.38
86272;BME280;76930;50.692;16.628;2024-03-02T06:14:04;97335.82;;;9.42;69.27
86272;BME280;76930;50.692;16.628;2024-03-02T06:16:32;97334.41;;;9.45;69.24
86272;BME280;76930;50.692;16.628;2024-03-02T06:19:01;97337.47;;;9.48;69.18
86272;BME280;76930;50.692;16.628;2024-03-02T06:21:29;97342.17;;;9.51;69.09
86272;BME280;76930;50.692;16.628;2024-03-02T06:23:58;97345.62;;;9.52;69.08
86272;BME280;76930;50.692;16.628;2024-03-02T06:26:25;97345.83;;;9.52;68.86
86272;BME280;76930;50.692;16.628;2024-03-02T06:28:53;97349.24;;;9.51;68.72
86272;BME280;76930;50.692;16.628;2024-03-02T06:31:22;97351.63;;;9.53;68.58
86272;BME280;76930;50.692;16.628;2024-03-02T06:33:49;97353.14;;;9.55;68.49
86272;BME280;76930;50.692;16.628;2024-03-02T06:36:18;97353.94;;;9.64;68.27
86272;BME280;76930;50.692;16.628;2024-03-02T06:38:45;97349.19;;;9.70;67.98
86272;BME280;76930;50.692;16.628;2024-03-02T06:41:12;97347.62;;;9.77;67.75
86272;BME280;76930;50.692;16.628;2024-03-02T06:43:39;97349.09;;;9.84;67.59
86272;BME280;76930;50.692;16.628;2024-03-02T06:46:06;97350.23;;;9.92;67.56
86272;BME280;76930;50.692;16.628;2024-03-02T06:48:36;97347.98;;;9.98;67.20
86272;BME280;76930;50.692;16.628;2024-03-02T06:51:03;97355.08;;;10.04;66.91
86272;BME280;76930;50.692;16.628;2024-03-02T06:53:31;97351.86;;;10.10;66.37
86272;BME280;76930;50.692;16.628;2024-03-02T06:56:02;97349.42;;;10.16;66.41
86272;BME280;76930;50.692;16.628;2024-03-02T06:58:31;97351.89;;;10.28;66.06
86272;BME280;76930;50.692;16.628;2024-03-02T07:00:58;97351.27;;;10.41;65.87
86272;BME280;76930;50.692;16.628;2024-03-02T07:03:27;97353.30;;;10.58;65.68
86272;BME280;76930;50.692;16.628;2024-03-02T07:05:54;97353.64;;;10.74;65.13
86272;BME280;76930;50.692;16.628;2024-03-02T07:08:22;97351.42;;;10.94;64.65
86272;BME280;76930;50.692;16.628;2024-03-02T07:10:49;97355.22;;;11.17;64.49
86272;BME280;76930;50.692;16.628;2024-03-02T07:13:16;97359.65;;;11.40;64.19
86272;BME280;76930;50.692;16.628;2024-03-02T07:15:43;97362.87;;;11.60;63.32
86272;BME280;76930;50.692;16.628;2024-03-02T07:18:22;97360.64;;;11.77;62.75
86272;BME280;76930;50.692;16.628;2024-03-02T07:20:49;97362.33;;;12.03;61.74
86272;BME280;76930;50.692;16.628;2024-03-02T07:23:16;97367.06;;;12.52;61.01
86272;BME280;76930;50.692;16.628;2024-03-02T07:25:45;97370.14;;;13.00;60.75
86272;BME280;76930;50.692;16.628;2024-03-02T07:28:32;97364.52;;;13.37;59.72
86272;BME280;76930;50.692;16.628;2024-03-02T07:31:04;97367.30;;;13.65;59.02
86272;BME280;76930;50.692;16.628;2024-03-02T07:33:32;97372.38;;;13.82;58.29
86272;BME280;76930;50.692;16.628;2024-03-02T07:36:02;97376.41;;;13.91;57.85
86272;BME280;76930;50.692;16.628;2024-03-02T07:38:32;97375.27;;;13.91;57.24
86272;BME280;76930;50.692;16.628;2024-03-02T07:41:01;97382.23;;;13.96;56.68
86272;BME280;76930;50.692;16.628;2024-03-02T07:43:28;97384.75;;;14.14;56.37
86272;BME280;76930;50.692;16.628;2024-03-02T07:45:55;97390.79;;;14.33;56.21
86272;BME280;76930;50.692;16.628;2024-03-02T07:48:23;97393.28;;;14.54;56.02
86272;BME280;76930;50.692;16.628;2024-03-02T07:50:50;97397.32;;;14.70;55.36
86272;BME280;76930;50.692;16.628;2024-03-02T07:53:17;97395.83;;;14.93;54.97
86272;BME280;76930;50.692;16.628;2024-03-02T07:55:45;97391.36;;;15.17;54.07
86272;BME280;76930;50.692;16.628;2024-03-02T07:58:12;97389.85;;;15.41;53.46
86272;BME280;76930;50.692;16.628;2024-03-02T08:00:40;97388.52;;;15.66;53.14
86272;BME280;76930;50.692;16.628;2024-03-02T08:03:07;97388.67;;;15.97;52.44
86272;BME280;76930;50.692;16.628;2024-03-02T08:05:39;97395.45;;;16.25;52.27
86272;BME280;76930;50.692;16.628;2024-03-02T08:08:06;97399.00;;;16.52;50.54
86272;BME280;76930;50.692;16.628;2024-03-02T08:10:42;97397.55;;;16.74;50.28
86272;BME280;76930;50.692;16.628;2024-03-02T08:13:09;97399.88;;;16.93;49.70
86272;BME280;76930;50.692;16.628;2024-03-02T08:15:36;97399.81;;;17.07;49.11
86272;BME280;76930;50.692;16.628;2024-03-02T08:18:03;97404.88;;;17.13;48.89
86272;BME280;76930;50.692;16.628;2024-03-02T08:20:31;97409.73;;;17.11;48.79
86272;BME280;76930;50.692;16.628;2024-03-02T08:22:59;97415.06;;;17.00;49.02
86272;BME280;76930;50.692;16.628;2024-03-02T08:25:28;97413.63;;;16.92;49.03
86272;BME280;76930;50.692;16.628;2024-03-02T08:27:58;97412.09;;;16.81;48.39
86272;BME280;76930;50.692;16.628;2024-03-02T08:30:25;97412.30;;;16.60;48.38
86272;BME280;76930;50.692;16.628;2024-03-02T08:32:52;97408.84;;;16.42;49.04
86272;BME280;76930;50.692;16.628;2024-03-02T08:35:19;97412.23;;;16.30;49.23
86272;BME280;76930;50.692;16.628;2024-03-02T08:37:46;97414.99;;;16.13;49.78
86272;BME280;76930;50.692;16.628;2024-03-02T08:40:16;97409.75;;;16.01;49.63
86272;BME280;76930;50.692;16.628;2024-03-02T08:42:45;97407.89;;;15.83;50.49
86272;BME280;76930;50.692;16.628;2024-03-02T08:45:14;97407.70;;;15.78;50.62
86272;BME280;76930;50.692;16.628;2024-03-02T08:47:41;97409.48;;;15.69;50.70
86272;BME280;76930;50.692;16.628;2024-03-02T08:50:08;97405.65;;;15.59;50.72
86272;BME280;76930;50.692;16.628;2024-03-02T08:52:36;97408.56;;;15.52;50.84
86272;BME280;76930;50.692;16.628;2024-03-02T08:55:04;97407.30;;;15.32;50.78
86272;BME280;76930;50.692;16.628;2024-03-02T08:57:33;97410.80;;;15.09;51.60
86272;BME280;76930;50.692;16.628;2024-03-02T09:00:02;97412.57;;;14.92;52.30
86272;BME280;76930;50.692;16.628;2024-03-02T09:02:29;97410.63;;;14.83;52.86
86272;BME280;76930;50.692;16.628;2024-03-02T09:04:57;97406.45;;;14.79;53.04
86272;BME280;76930;50.692;16.628;2024-03-02T09:07:26;97407.35;;;14.71;52.71
86272;BME280;76930;50.692;16.628;2024-03-02T09:09:57;97410.31;;;14.61;52.71
86272;BME280;76930;50.692;16.628;2024-03-02T09:12:25;97409.75;;;14.47;53.27
86272;BME280;76930;50.692;16.628;2024-03-02T09:14:52;97411.87;;;14.38;53.61
86272;BME280;76930;50.692;16.628;2024-03-02T09:17:20;97405.61;;;14.31;53.70
86272;BME280;76930;50.692;16.628;2024-03-02T09:19:47;97408.75;;;14.24;54.23
86272;BME280;76930;50.692;16.628;2024-03-02T09:22:19;97406.11;;;14.15;54.10
86272;BME280;76930;50.692;16.628;2024-03-02T09:24:47;97399.48;;;14.08;54.02
86272;BME280;76930;50.692;16.628;2024-03-02T09:27:14;97399.37;;;14.04;53.82
86272;BME280;76930;50.692;16.628;2024-03-02T09:29:41;97401.86;;;13.98;53.86
86272;BME280;76930;50.692;16.628;2024-03-02T09:32:12;97398.48;;;13.96;54.70
86272;BME280;76930;50.692;16.628;2024-03-02T09:34:41;97401.51;;;14.01;54.57
86272;BME280;76930;50.692;16.628;2024-03-02T09:37:08;97399.77;;;14.00;53.88
86272;BME280;76930;50.692;16.628;2024-03-02T09:39:35;97397.83;;;13.97;53.97
86272;BME280;76930;50.692;16.628;2024-03-02T09:42:04;97402.02;;;13.94;54.01
86272;BME280;76930;50.692;16.628;2024-03-02T09:44:33;97402.95;;;13.93;54.04
86272;BME280;76930;50.692;16.628;2024-03-02T09:47:02;97404.02;;;13.95;54.03
86272;BME280;76930;50.692;16.628;2024-03-02T09:49:30;97404.98;;;13.99;54.35
86272;BME280;76930;50.692;16.628;2024-03-02T09:51:57;97402.81;;;14.08;54.33
86272;BME280;76930;50.692;16.628;2024-03-02T09:54:24;97404.38;;;14.20;54.16
86272;BME280;76930;50.692;16.628;2024-03-02T09:56:51;97406.59;;;14.27;53.69
86272;BME280;76930;50.692;16.628;2024-03-02T09:59:19;97407.69;;;14.26;53.47
86272;BME280;76930;50.692;16.628;2024-03-02T10:02:02;97404.94;;;14.25;53.88
86272;BME280;76930;50.692;16.628;2024-03-02T10:04:30;97405.57;;;14.31;53.60
86272;BME280;76930;50.692;16.628;2024-03-02T10:07:17;97402.60;;;14.33;53.62
86272;BME280;76930;50.692;16.628;2024-03-02T10:09:46;97400.02;;;14.38;53.40
86272;BME280;76930;50.692;16.628;2024-03-02T10:12:15;97398.27;;;14.43;53.53
86272;BME280;76930;50.692;16.628;2024-03-02T10:14:43;97394.27;;;14.48;52.93
86272;BME280;76930;50.692;16.628;2024-03-02T10:17:12;97391.75;;;14.54;53.32
86272;BME280;76930;50.692;16.628;2024-03-02T10:19:40;97389.56;;;14.61;53.40
86272;BME280;76930;50.692;16.628;2024-03-02T10:22:08;97383.25;;;14.66;52.93
86272;BME280;76930;50.692;16.628;2024-03-02T10:24:37;97383.02;;;14.70;52.74
86272;BME280;76930;50.692;16.628;2024-03-02T10:27:22;97384.67;;;14.69;52.44
86272;BME280;76930;50.692;16.628;2024-03-02T10:29:50;97385.04;;;14.69;52.40
86272;BME280;76930;50.692;16.628;2024-03-02T10:32:17;97386.51;;;14.67;51.94
86272;BME280;76930;50.692;16.628;2024-03-02T10:34:46;97386.46;;;14.63;51.95
86272;BME280;76930;50.692;16.628;2024-03-02T10:37:14;97384.39;;;14.59;52.05
86272;BME280;76930;50.692;16.628;2024-03-02T10:39:42;97381.86;;;14.54;52.00
86272;BME280;76930;50.692;16.628;2024-03-02T10:42:09;97380.58;;;14.53;52.64
86272;BME280;76930;50.692;16.628;2024-03-02T10:44:44;97380.56;;;14.58;52.25
86272;BME280;76930;50.692;16.628;2024-03-02T10:47:13;97378.13;;;14.59;52.15
86272;BME280;76930;50.692;16.628;2024-03-02T10:49:42;97378.84;;;14.61;52.26
86272;BME280;76930;50.692;16.628;2024-03-02T10:52:10;97377.56;;;14.64;52.11
86272;BME280;76930;50.692;16.628;2024-03-02T10:54:38;97374.17;;;14.69;52.13
86272;BME280;76930;50.692;16.628;2024-03-02T10:57:07;97374.92;;;14.73;51.97
86272;BME280;76930;50.692;16.628;2024-03-02T10:59:37;97373.65;;;14.76;51.95
86272;BME280;76930;50.692;16.628;2024-03-02T11:02:10;97384.27;;;14.77;51.81
86272;BME280;76930;50.692;16.628;2024-03-02T11:04:42;97386.49;;;14.79;52.24
86272;BME280;76930;50.692;16.628;2024-03-02T11:07:10;97388.27;;;14.84;51.41
86272;BME280;76930;50.692;16.628;2024-03-02T11:09:57;97385.56;;;14.81;51.08
86272;BME280;76930;50.692;16.628;2024-03-02T11:12:31;97383.70;;;14.71;51.28
86272;BME280;76930;50.692;16.628;2024-03-02T11:15:09;97379.27;;;14.65;51.54
86272;BME280;76930;50.692;16.628;2024-03-02T11:17:40;97377.17;;;14.61;51.93
86272;BME280;76930;50.692;16.628;2024-03-02T11:20:09;97380.05;;;14.60;51.49
86272;BME280;76930;50.692;16.628;2024-03-02T11:22:37;97380.02;;;14.60;52.28
86272;BME280;76930;50.692;16.628;2024-03-02T11:25:06;97379.27;;;14.57;51.99
86272;BME280;76930;50.692;16.628;2024-03-02T11:33:00;97382.48;;;14.62;51.44
86272;BME280;76930;50.692;16.628;2024-03-02T11:35:28;97373.19;;;14.60;51.61
86272;BME280;76930;50.692;16.628;2024-03-02T11:37:55;97380.43;;;14.62;51.91
86272;BME280;76930;50.692;16.628;2024-03-02T11:40:28;97376.21;;;14.65;51.30
86272;BME280;76930;50.692;16.628;2024-03-02T11:42:56;97382.94;;;14.69;51.80
86272;BME280;76930;50.692;16.628;2024-03-02T11:45:26;97379.14;;;14.72;51.43
86272;BME280;76930;50.692;16.628;2024-03-02T11:47:54;97382.17;;;14.71;51.04
86272;BME280;76930;50.692;16.628;2024-03-02T11:50:51;97379.19;;;14.70;51.35
86272;BME280;76930;50.692;16.628;2024-03-02T11:53:20;97381.03;;;14.71;51.98
86272;BME280;76930;50.692;16.628;2024-03-02T11:55:52;97378.90;;;14.75;51.63
86272;BME280;76930;50.692;16.628;2024-03-02T11:58:19;97379.55;;;14.78;51.72
86272;BME280;76930;50.692;16.628;2024-03-02T12:00:51;97376.40;;;14.82;51.95
86272;BME280;76930;50.692;16.628;2024-03-02T12:03:21;97379.58;;;14.86;52.03
86272;BME280;76930;50.692;16.628;2024-03-02T12:05:52;97376.35;;;14.86;51.16
86272;BME280;76930;50.692;16.628;2024-03-02T12:08:22;97373.67;;;14.85;50.63
86272;BME280;76930;50.692;16.628;2024-03-02T12:10:58;97370.73;;;14.81;50.61
86272;BME280;76930;50.692;16.628;2024-03-02T12:13:28;97369.91;;;14.79;50.74
86272;BME280;76930;50.692;16.628;2024-03-02T12:15:55;97365.05;;;14.77;50.41
86272;BME280;76930;50.692;16.628;2024-03-02T12:18:24;97360.13;;;14.77;50.18
86272;BME280;76930;50.692;16.628;2024-03-02T12:20:53;97361.20;;;14.77;50.64
86272;BME280;76930;50.692;16.628;2024-03-02T12:23:23;97363.36;;;14.78;50.75
86272;BME280;76930;50.692;16.628;2024-03-02T12:25:51;97363.58;;;14.78;50.93
86272;BME280;76930;50.692;16.628;2024-03-02T12:28:19;97362.76;;;14.79;50.84
86272;BME280;76930;50.692;16.628;2024-03-02T12:30:47;97358.84;;;14.80;50.74
86272;BME280;76930;50.692;16.628;2024-03-02T12:33:15;97362.21;;;14.82;50.92
86272;BME280;76930;50.692;16.628;2024-03-02T12:35:43;97364.16;;;14.80;50.95
86272;BME280;76930;50.692;16.628;2024-03-02T12:38:10;97362.90;;;14.80;51.40
86272;BME280;76930;50.692;16.628;2024-03-02T12:40:38;97365.17;;;14.80;51.12
86272;BME280;76930;50.692;16.628;2024-03-02T12:43:07;97360.90;;;14.79;51.40
86272;BME280;76930;50.692;16.628;2024-03-02T12:45:35;97364.53;;;14.76;51.49
86272;BME280;76930;50.692;16.628;2024-03-02T12:48:04;97366.48;;;14.76;51.62
86272;BME280;76930;50.692;16.628;2024-03-02T12:50:33;97372.44;;;14.74;51.58
86272;BME280;76930;50.692;16.628;2024-03-02T12:53:00;97372.25;;;14.73;51.87
86272;BME280;76930;50.692;16.628;2024-03-02T12:55:27;97375.54;;;14.71;51.80
86272;BME280;76930;50.692;16.628;2024-03-02T12:57:58;97377.46;;;14.68;51.69
86272;BME280;76930;50.692;16.628;2024-03-02T13:00:26;97374.78;;;14.71;51.98
86272;BME280;76930;50.692;16.628;2024-03-02T13:02:53;97372.30;;;14.74;51.56
86272;BME280;76930;50.692;16.628;2024-03-02T13:05:24;97376.80;;;14.74;51.82
86272;BME280;76930;50.692;16.628;2024-03-02T13:07:55;97377.36;;;14.75;51.93
86272;BME280;76930;50.692;16.628;2024-03-02T13:10:23;97375.08;;;14.79;51.95
86272;BME280;76930;50.692;16.628;2024-03-02T13:12:52;97375.35;;;14.83;51.97
86272;BME280;76930;50.692;16.628;2024-03-02T13:15:22;97376.48;;;14.87;51.85